sensor_id;sensor_type;location;lat;lon;timestamp;temperature;humidity
25933;DHT22;13731;51.166;4.474;2023-03-05T00:01:23;6.90;98.40
25933;DHT22;13731;51.166;4.474;2023-03-05T00:03:54;6.90;99.90
25933;DHT22;13731;51.166;4.474;2023-03-05T00:06:22;6.80;93.80
25933;DHT22;13731;51.166;4.474;2023-03-05T00:08:49;6.80;99.90
25933;DHT22;13731;51.166;4.474;2023-03-05T00:11:16;6.90;1.00
25933;DHT22;13731;51.166;4.474;2023-03-05T00:13:42;6.90;1.00
25933;DHT22;13731;51.166;4.474;2023-03-05T00:16:11;6.90;1.00
25933;DHT22;13731;51.166;4.474;2023-03-05T00:18:38;6.90;1.00
25933;DHT22;13731;51.166;4.474;2023-03-05T00:21:12;7.00;1.00
25933;DHT22;13731;51.166;4.474;2023-03-05T00:23:41;7.20;99.90
25933;DHT22;13731;51.166;4.474;2023-03-05T00:26:07;7.10;8.70
25933;DHT22;13731;51.166;4.474;2023-03-05T00:28:33;7.20;99.90
25933;DHT22;13731;51.166;4.474;2023-03-05T00:30:59;7.10;99.90
25933;DHT22;13731;51.166;4.474;2023-03-05T00:33:26;7.00;99.90
25933;DHT22;13731;51.166;4.474;2023-03-05T00:35:51;7.30;1.00
25933;DHT22;13731;51.166;4.474;2023-03-05T00:38:17;7.30;1.00
25933;DHT22;13731;51.166;4.474;2023-03-05T00:40:43;7.00;21.90
25933;DHT22;13731;51.166;4.474;2023-03-05T00:43:10;7.00;99.90
25933;DHT22;13731;51.166;4.474;2023-03-05T00:45:36;6.90;99.90
25933;DHT22;13731;51.166;4.474;2023-03-05T00:48:03;7.00;99.90
25933;DHT22;13731;51.166;4.474;2023-03-05T00:50:29;7.20;1.00
25933;DHT22;13731;51.166;4.474;2023-03-05T00:52:55;7.20;1.00
25933;DHT22;13731;51.166;4.474;2023-03-05T00:55:21;7.20;1.00
25933;DHT22;13731;51.166;4.474;2023-03-05T00:57:47;7.20;1.00
25933;DHT22;13731;51.166;4.474;2023-03-05T01:00:14;7.10;1.00
25933;DHT22;13731;51.166;4.474;2023-03-05T01:02:40;7.10;1.00
25933;DHT22;13731;51.166;4.474;2023-03-05T01:05:09;7.10;1.00
25933;DHT22;13731;51.166;4.474;2023-03-05T01:07:35;7.00;28.80
25933;DHT22;13731;51.166;4.474;2023-03-05T01:10:01;6.80;99.90
25933;DHT22;13731;51.166;4.474;2023-03-05T01:12:27;6.90;99.90
25933;DHT22;13731;51.166;4.474;2023-03-05T01:14:53;7.10;1.00
25933;DHT22;13731;51.166;4.474;2023-03-05T01:17:19;6.90;79.90
25933;DHT22;13731;51.166;4.474;2023-03-05T01:19:45;6.90;99.90
25933;DHT22;13731;51.166;4.474;2023-03-05T01:22:11;6.90;99.90
25933;DHT22;13731;51.166;4.474;2023-03-05T01:24:37;6.90;99.90
25933;DHT22;13731;51.166;4.474;2023-03-05T01:27:03;6.90;99.90
25933;DHT22;13731;51.166;4.474;2023-03-05T01:29:29;6.80;99.90
25933;DHT22;13731;51.166;4.474;2023-03-05T01:31:55;6.80;99.90
25933;DHT22;13731;51.166;4.474;2023-03-05T01:34:21;6.60;99.90
25933;DHT22;13731;51.166;4.474;2023-03-05T01:36:47;6.70;99.90
25933;DHT22;13731;51.166;4.474;2023-03-05T01:39:15;6.60;99.90
25933;DHT22;13731;51.166;4.474;2023-03-05T01:41:41;6.70;99.90
25933;DHT22;13731;51.166;4.474;2023-03-05T01:44:20;6.60;99.90
25933;DHT22;13731;51.166;4.474;2023-03-05T01:46:46;6.60;99.90
25933;DHT22;13731;51.166;4.474;2023-03-05T01:49:19;6.30;99.90
25933;DHT22;13731;51.166;4.474;2023-03-05T01:51:50;6.20;1.00
25933;DHT22;13731;51.166;4.474;2023-03-05T01:54:20;6.00;76.10
25933;DHT22;13731;51.166;4.474;2023-03-05T01:56:49;6.10;1.00
25933;DHT22;13731;51.166;4.474;2023-03-05T01:59:16;6.00;1.00
25933;DHT22;13731;51.166;4.474;2023-03-05T02:01:46;6.10;96.40
25933;DHT22;13731;51.166;4.474;2023-03-05T02:04:15;6.20;1.00
25933;DHT22;13731;51.166;4.474;2023-03-05T02:06:44;6.20;55.50
25933;DHT22;13731;51.166;4.474;2023-03-05T02:09:11;6.20;99.90
25933;DHT22;13731;51.166;4.474;2023-03-05T02:11:38;6.20;99.90
25933;DHT22;13731;51.166;4.474;2023-03-05T02:14:05;6.30;1.00
25933;DHT22;13731;51.166;4.474;2023-03-05T02:16:32;6.20;99.90
25933;DHT22;13731;51.166;4.474;2023-03-05T02:19:03;6.10;1.00
25933;DHT22;13731;51.166;4.474;2023-03-05T02:21:45;6.10;1.00
25933;DHT22;13731;51.166;4.474;2023-03-05T02:24:34;6.00;1.00
25933;DHT22;13731;51.166;4.474;2023-03-05T02:27:00;5.90;99.90
25933;DHT22;13731;51.166;4.474;2023-03-05T02:29:28;6.00;99.90
25933;DHT22;13731;51.166;4.474;2023-03-05T02:31:54;5.90;99.90
25933;DHT22;13731;51.166;4.474;2023-03-05T02:34:22;6.00;88.60
25933;DHT22;13731;51.166;4.474;2023-03-05T02:36:48;6.30;99.90
25933;DHT22;13731;51.166;4.474;2023-03-05T02:39:21;6.20;99.90
25933;DHT22;13731;51.166;4.474;2023-03-05T02:41:47;6.10;1.00
25933;DHT22;13731;51.166;4.474;2023-03-05T02:44:13;6.20;1.00
25933;DHT22;13731;51.166;4.474;2023-03-05T02:46:39;6.20;1.00
25933;DHT22;13731;51.166;4.474;2023-03-05T02:49:05;6.10;1.00
25933;DHT22;13731;51.166;4.474;2023-03-05T02:51:31;6.00;33.60
25933;DHT22;13731;51.166;4.474;2023-03-05T02:53:57;6.00;99.90
25933;DHT22;13731;51.166;4.474;2023-03-05T02:56:25;5.90;99.90
25933;DHT22;13731;51.166;4.474;2023-03-05T02:58:52;5.80;1.00
25933;DHT22;13731;51.166;4.474;2023-03-05T03:01:18;5.80;43.30
25933;DHT22;13731;51.166;4.474;2023-03-05T03:03:44;5.80;1.00
25933;DHT22;13731;51.166;4.474;2023-03-05T03:06:10;5.70;4.20
25933;DHT22;13731;51.166;4.474;2023-03-05T03:08:36;5.70;99.90
25933;DHT22;13731;51.166;4.474;2023-03-05T03:11:09;5.80;99.90
25933;DHT22;13731;51.166;4.474;2023-03-05T03:13:37;5.70;99.90
25933;DHT22;13731;51.166;4.474;2023-03-05T03:16:07;5.90;33.70
25933;DHT22;13731;51.166;4.474;2023-03-05T03:18:34;6.10;99.90
25933;DHT22;13731;51.166;4.474;2023-03-05T03:21:00;6.10;99.90
25933;DHT22;13731;51.166;4.474;2023-03-05T03:23:26;6.00;99.90
25933;DHT22;13731;51.166;4.474;2023-03-05T03:25:52;5.90;99.90
25933;DHT22;13731;51.166;4.474;2023-03-05T03:28:19;5.70;99.90
25933;DHT22;13731;51.166;4.474;2023-03-05T03:30:45;5.70;99.90
25933;DHT22;13731;51.166;4.474;2023-03-05T03:33:10;5.70;99.90
25933;DHT22;13731;51.166;4.474;2023-03-05T03:35:37;5.50;1.00
25933;DHT22;13731;51.166;4.474;2023-03-05T03:38:03;5.50;99.90
25933;DHT22;13731;51.166;4.474;2023-03-05T03:40:29;5.50;99.90
25933;DHT22;13731;51.166;4.474;2023-03-05T03:42:55;5.50;99.90
25933;DHT22;13731;51.166;4.474;2023-03-05T03:45:21;5.60;99.90
25933;DHT22;13731;51.166;4.474;2023-03-05T03:47:48;5.60;99.90
25933;DHT22;13731;51.166;4.474;2023-03-05T03:50:15;5.70;1.00
25933;DHT22;13731;51.166;4.474;2023-03-05T03:52:41;5.80;1.00
25933;DHT22;13731;51.166;4.474;2023-03-05T03:55:07;5.80;99.90
25933;DHT22;13731;51.166;4.474;2023-03-05T03:57:33;5.90;99.90
25933;DHT22;13731;51.166;4.474;2023-03-05T03:59:59;6.00;99.90
25933;DHT22;13731;51.166;4.474;2023-03-05T04:02:25;6.00;1.00
25933;DHT22;13731;51.166;4.474;2023-03-05T04:04:51;5.80;97.70
25933;DHT22;13731;51.166;4.474;2023-03-05T04:07:18;5.60;1.00
25933;DHT22;13731;51.166;4.474;2023-03-05T04:09:44;5.50;99.90
25933;DHT22;13731;51.166;4.474;2023-03-05T04:12:10;5.60;1.00
25933;DHT22;13731;51.166;4.474;2023-03-05T04:14:36;5.70;1.00
25933;DHT22;13731;51.166;4.474;2023-03-05T04:17:02;5.70;1.00
25933;DHT22;13731;51.166;4.474;2023-03-05T04:19:28;5.60;29.50
25933;DHT22;13731;51.166;4.474;2023-03-05T04:21:57;5.80;99.90
25933;DHT22;13731;51.166;4.474;2023-03-05T04:24:22;5.60;1.00
25933;DHT22;13731;51.166;4.474;2023-03-05T04:26:48;5.40;99.90
25933;DHT22;13731;51.166;4.474;2023-03-05T04:29:14;5.50;99.90
25933;DHT22;13731;51.166;4.474;2023-03-05T04:31:40;5.40;99.90
25933;DHT22;13731;51.166;4.474;2023-03-05T04:34:06;5.30;1.00
25933;DHT22;13731;51.166;4.474;2023-03-05T04:36:32;5.20;99.90
25933;DHT22;13731;51.166;4.474;2023-03-05T04:38:58;5.20;99.90
25933;DHT22;13731;51.166;4.474;2023-03-05T04:41:23;5.20;99.90
25933;DHT22;13731;51.166;4.474;2023-03-05T04:43:49;5.30;99.90
25933;DHT22;13731;51.166;4.474;2023-03-05T04:46:15;5.40;99.90
25933;DHT22;13731;51.166;4.474;2023-03-05T04:48:41;5.40;5.70
25933;DHT22;13731;51.166;4.474;2023-03-05T04:51:07;5.50;1.00
25933;DHT22;13731;51.166;4.474;2023-03-05T04:53:33;5.40;99.90
25933;DHT22;13731;51.166;4.474;2023-03-05T04:55:59;5.40;1.00
25933;DHT22;13731;51.166;4.474;2023-03-05T04:58:26;5.40;1.00
25933;DHT22;13731;51.166;4.474;2023-03-05T05:00:52;5.50;1.00
25933;DHT22;13731;51.166;4.474;2023-03-05T05:03:18;5.30;1.00
25933;DHT22;13731;51.166;4.474;2023-03-05T05:05:44;5.30;1.00
25933;DHT22;13731;51.166;4.474;2023-03-05T05:08:10;5.50;1.00
25933;DHT22;13731;51.166;4.474;2023-03-05T05:10:36;5.50;99.90
25933;DHT22;13731;51.166;4.474;2023-03-05T05:13:05;5.40;99.90
25933;DHT22;13731;51.166;4.474;2023-03-05T05:15:31;5.40;1.00
25933;DHT22;13731;51.166;4.474;2023-03-05T05:17:57;5.50;1.00
25933;DHT22;13731;51.166;4.474;2023-03-05T05:20:22;5.50;1.00
25933;DHT22;13731;51.166;4.474;2023-03-05T05:22:48;5.40;1.00
25933;DHT22;13731;51.166;4.474;2023-03-05T05:25:14;5.40;1.00
25933;DHT22;13731;51.166;4.474;2023-03-05T05:27:40;5.50;99.90
25933;DHT22;13731;51.166;4.474;2023-03-05T05:30:07;5.50;99.90
25933;DHT22;13731;51.166;4.474;2023-03-05T05:32:33;5.50;99.90
25933;DHT22;13731;51.166;4.474;2023-03-05T05:34:59;5.40;1.00
25933;DHT22;13731;51.166;4.474;2023-03-05T05:37:25;5.40;1.00
25933;DHT22;13731;51.166;4.474;2023-03-05T05:39:51;5.60;99.90
25933;DHT22;13731;51.166;4.474;2023-03-05T05:42:19;5.50;99.90
25933;DHT22;13731;51.166;4.474;2023-03-05T05:44:46;5.60;99.90
25933;DHT22;13731;51.166;4.474;2023-03-05T05:47:13;5.50;99.90
25933;DHT22;13731;51.166;4.474;2023-03-05T05:49:39;5.40;99.90
25933;DHT22;13731;51.166;4.474;2023-03-05T05:52:05;5.50;1.00
25933;DHT22;13731;51.166;4.474;2023-03-05T05:54:31;5.60;99.90
25933;DHT22;13731;51.166;4.474;2023-03-05T05:56:57;6.00;99.90
25933;DHT22;13731;51.166;4.474;2023-03-05T05:59:23;5.90;99.90
25933;DHT22;13731;51.166;4.474;2023-03-05T06:01:49;5.70;1.00
25933;DHT22;13731;51.166;4.474;2023-03-05T06:04:15;5.60;99.90
25933;DHT22;13731;51.166;4.474;2023-03-05T06:06:41;5.40;1.00
25933;DHT22;13731;51.166;4.474;2023-03-05T06:09:07;5.60;1.00
25933;DHT22;13731;51.166;4.474;2023-03-05T06:11:33;5.70;1.00
25933;DHT22;13731;51.166;4.474;2023-03-05T06:13:59;5.60;1.00
25933;DHT22;13731;51.166;4.474;2023-03-05T06:16:27;5.30;34.40
25933;DHT22;13731;51.166;4.474;2023-03-05T06:18:53;5.20;1.00
25933;DHT22;13731;51.166;4.474;2023-03-05T06:21:20;5.10;1.00
25933;DHT22;13731;51.166;4.474;2023-03-05T06:23:48;5.20;1.00
25933;DHT22;13731;51.166;4.474;2023-03-05T06:26:16;5.20;1.00
25933;DHT22;13731;51.166;4.474;2023-03-05T06:28:43;5.00;24.10
25933;DHT22;13731;51.166;4.474;2023-03-05T06:31:14;4.90;99.90
25933;DHT22;13731;51.166;4.474;2023-03-05T06:33:43;4.70;99.90
25933;DHT22;13731;51.166;4.474;2023-03-05T06:36:12;4.70;99.90
25933;DHT22;13731;51.166;4.474;2023-03-05T06:38:38;4.50;99.90
25933;DHT22;13731;51.166;4.474;2023-03-05T06:41:07;4.50;99.90
25933;DHT22;13731;51.166;4.474;2023-03-05T06:43:38;4.50;1.00
25933;DHT22;13731;51.166;4.474;2023-03-05T06:46:14;4.40;1.00
25933;DHT22;13731;51.166;4.474;2023-03-05T06:48:41;4.50;1.00
25933;DHT22;13731;51.166;4.474;2023-03-05T06:51:23;4.60;1.00
25933;DHT22;13731;51.166;4.474;2023-03-05T06:53:50;4.60;1.00
25933;DHT22;13731;51.166;4.474;2023-03-05T06:56:18;4.80;1.00
25933;DHT22;13731;51.166;4.474;2023-03-05T06:58:45;4.80;1.00
25933;DHT22;13731;51.166;4.474;2023-03-05T07:01:12;4.90;1.00
25933;DHT22;13731;51.166;4.474;2023-03-05T07:03:39;4.90;99.90
25933;DHT22;13731;51.166;4.474;2023-03-05T07:06:07;4.90;99.90
25933;DHT22;13731;51.166;4.474;2023-03-05T07:08:35;5.00;99.90
25933;DHT22;13731;51.166;4.474;2023-03-05T07:11:01;4.90;99.90
25933;DHT22;13731;51.166;4.474;2023-03-05T07:13:27;4.90;99.90
25933;DHT22;13731;51.166;4.474;2023-03-05T07:15:53;4.90;1.00
25933;DHT22;13731;51.166;4.474;2023-03-05T07:18:19;5.00;99.90
25933;DHT22;13731;51.166;4.474;2023-03-05T07:20:45;5.10;99.90
25933;DHT22;13731;51.166;4.474;2023-03-05T07:23:11;4.90;99.90
25933;DHT22;13731;51.166;4.474;2023-03-05T07:25:38;5.20;99.90
25933;DHT22;13731;51.166;4.474;2023-03-05T07:28:05;5.30;99.90
25933;DHT22;13731;51.166;4.474;2023-03-05T07:30:32;5.40;77.30
25933;DHT22;13731;51.166;4.474;2023-03-05T07:32:59;5.50;1.00
25933;DHT22;13731;51.166;4.474;2023-03-05T07:35:25;5.60;1.00
25933;DHT22;13731;51.166;4.474;2023-03-05T07:37:51;5.60;1.00
25933;DHT22;13731;51.166;4.474;2023-03-05T07:40:19;5.70;1.00
25933;DHT22;13731;51.166;4.474;2023-03-05T07:42:46;5.80;1.00
25933;DHT22;13731;51.166;4.474;2023-03-05T07:45:21;6.20;99.90
25933;DHT22;13731;51.166;4.474;2023-03-05T07:47:47;5.90;99.90
25933;DHT22;13731;51.166;4.474;2023-03-05T07:50:13;5.90;99.90
25933;DHT22;13731;51.166;4.474;2023-03-05T07:52:39;5.80;99.90
25933;DHT22;13731;51.166;4.474;2023-03-05T07:55:05;5.70;99.90
25933;DHT22;13731;51.166;4.474;2023-03-05T07:57:31;5.70;99.90
25933;DHT22;13731;51.166;4.474;2023-03-05T07:59:57;5.70;99.90
25933;DHT22;13731;51.166;4.474;2023-03-05T08:02:23;5.70;1.00
25933;DHT22;13731;51.166;4.474;2023-03-05T08:04:49;5.60;99.90
25933;DHT22;13731;51.166;4.474;2023-03-05T08:07:15;5.70;55.10
25933;DHT22;13731;51.166;4.474;2023-03-05T08:09:41;5.70;1.00
25933;DHT22;13731;51.166;4.474;2023-03-05T08:12:07;5.90;99.90
25933;DHT22;13731;51.166;4.474;2023-03-05T08:14:35;5.90;71.30
25933;DHT22;13731;51.166;4.474;2023-03-05T08:17:03;6.00;99.90
25933;DHT22;13731;51.166;4.474;2023-03-05T08:19:29;5.80;1.00
25933;DHT22;13731;51.166;4.474;2023-03-05T08:21:55;5.40;72.00
25933;DHT22;13731;51.166;4.474;2023-03-05T08:24:20;5.40;1.00
25933;DHT22;13731;51.166;4.474;2023-03-05T08:26:54;5.60;99.90
25933;DHT22;13731;51.166;4.474;2023-03-05T08:29:20;5.50;99.90
25933;DHT22;13731;51.166;4.474;2023-03-05T08:31:47;5.60;99.90
25933;DHT22;13731;51.166;4.474;2023-03-05T08:34:14;5.40;99.90
25933;DHT22;13731;51.166;4.474;2023-03-05T08:36:40;5.30;99.90
25933;DHT22;13731;51.166;4.474;2023-03-05T08:39:06;5.30;1.00
25933;DHT22;13731;51.166;4.474;2023-03-05T08:41:33;5.40;1.00
25933;DHT22;13731;51.166;4.474;2023-03-05T08:43:59;5.40;1.00
25933;DHT22;13731;51.166;4.474;2023-03-05T08:46:25;5.30;1.00
25933;DHT22;13731;51.166;4.474;2023-03-05T08:48:51;5.40;1.00
25933;DHT22;13731;51.166;4.474;2023-03-05T08:51:20;5.60;1.00
25933;DHT22;13731;51.166;4.474;2023-03-05T08:53:48;5.70;1.00
25933;DHT22;13731;51.166;4.474;2023-03-05T08:56:14;5.80;1.00
25933;DHT22;13731;51.166;4.474;2023-03-05T08:58:40;6.00;99.90
25933;DHT22;13731;51.166;4.474;2023-03-05T09:01:06;5.90;99.90
25933;DHT22;13731;51.166;4.474;2023-03-05T09:03:32;5.90;99.90
25933;DHT22;13731;51.166;4.474;2023-03-05T09:05:59;5.90;1.00
25933;DHT22;13731;51.166;4.474;2023-03-05T09:08:25;6.20;99.90
25933;DHT22;13731;51.166;4.474;2023-03-05T09:10:51;6.40;85.20
25933;DHT22;13731;51.166;4.474;2023-03-05T09:13:17;6.70;1.00
25933;DHT22;13731;51.166;4.474;2023-03-05T09:15:43;6.80;1.00
25933;DHT22;13731;51.166;4.474;2023-03-05T09:18:09;7.00;99.90
25933;DHT22;13731;51.166;4.474;2023-03-05T09:20:35;6.90;1.00
25933;DHT22;13731;51.166;4.474;2023-03-05T09:23:02;7.00;97.70
25933;DHT22;13731;51.166;4.474;2023-03-05T09:25:28;7.00;99.90
25933;DHT22;13731;51.166;4.474;2023-03-05T09:27:54;7.10;99.90
25933;DHT22;13731;51.166;4.474;2023-03-05T09:30:20;7.10;99.90
25933;DHT22;13731;51.166;4.474;2023-03-05T09:32:46;7.20;99.90
25933;DHT22;13731;51.166;4.474;2023-03-05T09:35:12;7.30;1.00
25933;DHT22;13731;51.166;4.474;2023-03-05T09:37:37;7.40;1.00
25933;DHT22;13731;51.166;4.474;2023-03-05T09:40:04;7.30;99.90
25933;DHT22;13731;51.166;4.474;2023-03-05T09:51:03;8.10;1.00
25933;DHT22;13731;51.166;4.474;2023-03-05T09:54:02;8.00;99.90
25933;DHT22;13731;51.166;4.474;2023-03-05T09:56:35;7.70;99.90
25933;DHT22;13731;51.166;4.474;2023-03-05T09:59:13;7.80;99.90
25933;DHT22;13731;51.166;4.474;2023-03-05T10:01:43;7.70;99.90
25933;DHT22;13731;51.166;4.474;2023-03-05T10:04:22;7.70;99.90
25933;DHT22;13731;51.166;4.474;2023-03-05T10:09:26;7.70;1.00
25933;DHT22;13731;51.166;4.474;2023-03-05T10:12:23;7.70;99.90
25933;DHT22;13731;51.166;4.474;2023-03-05T10:14:48;7.30;1.00
25933;DHT22;13731;51.166;4.474;2023-03-05T10:28:56;8.00;1.00
25933;DHT22;13731;51.166;4.474;2023-03-05T10:34:41;8.70;61.70
25933;DHT22;13731;51.166;4.474;2023-03-05T10:39:55;9.10;1.00
25933;DHT22;13731;51.166;4.474;2023-03-05T10:45:41;9.20;1.00
25933;DHT22;13731;51.166;4.474;2023-03-05T10:48:54;9.70;91.80
25933;DHT22;13731;51.166;4.474;2023-03-05T10:53:57;9.40;99.90
25933;DHT22;13731;51.166;4.474;2023-03-05T10:56:26;9.40;1.00
25933;DHT22;13731;51.166;4.474;2023-03-05T10:58:53;9.40;99.90
25933;DHT22;13731;51.166;4.474;2023-03-05T11:04:07;9.40;1.00
25933;DHT22;13731;51.166;4.474;2023-03-05T11:06:40;9.50;17.40
25933;DHT22;13731;51.166;4.474;2023-03-05T11:09:24;9.80;1.00
25933;DHT22;13731;51.166;4.474;2023-03-05T11:12:18;10.00;1.00
25933;DHT22;13731;51.166;4.474;2023-03-05T11:17:43;10.20;1.00
25933;DHT22;13731;51.166;4.474;2023-03-05T11:28:38;11.00;99.90
25933;DHT22;13731;51.166;4.474;2023-03-05T11:39:17;9.50;1.00
25933;DHT22;13731;51.166;4.474;2023-03-05T11:49:28;7.60;90.70
25933;DHT22;13731;51.166;4.474;2023-03-05T11:52:01;7.40;1.00
25933;DHT22;13731;51.166;4.474;2023-03-05T11:55:16;7.10;99.90
25933;DHT22;13731;51.166;4.474;2023-03-05T12:00:31;6.80;99.00
25933;DHT22;13731;51.166;4.474;2023-03-05T12:03:03;6.30;1.00
25933;DHT22;13731;51.166;4.474;2023-03-05T12:05:31;5.90;99.90
25933;DHT22;13731;51.166;4.474;2023-03-05T12:07:58;5.60;1.00
25933;DHT22;13731;51.166;4.474;2023-03-05T12:10:26;5.40;99.90
25933;DHT22;13731;51.166;4.474;2023-03-05T12:18:17;5.80;99.90
25933;DHT22;13731;51.166;4.474;2023-03-05T12:23:27;5.70;1.00
25933;DHT22;13731;51.166;4.474;2023-03-05T12:25:55;5.80;17.00
25933;DHT22;13731;51.166;4.474;2023-03-05T12:33:38;6.30;1.00
25933;DHT22;13731;51.166;4.474;2023-03-05T12:36:34;6.50;99.90
25933;DHT22;13731;51.166;4.474;2023-03-05T12:39:00;6.90;1.00
25933;DHT22;13731;51.166;4.474;2023-03-05T12:48:58;7.40;6.60
25933;DHT22;13731;51.166;4.474;2023-03-05T12:51:30;7.20;1.00
25933;DHT22;13731;51.166;4.474;2023-03-05T12:53:56;7.10;1.00
25933;DHT22;13731;51.166;4.474;2023-03-05T12:56:27;7.50;1.00
25933;DHT22;13731;51.166;4.474;2023-03-05T12:58:57;7.30;92.00
25933;DHT22;13731;51.166;4.474;2023-03-05T13:01:58;7.50;1.00
25933;DHT22;13731;51.166;4.474;2023-03-05T13:04:28;7.70;99.90
25933;DHT22;13731;51.166;4.474;2023-03-05T13:07:04;7.80;99.90
25933;DHT22;13731;51.166;4.474;2023-03-05T13:09:32;7.80;1.00
25933;DHT22;13731;51.166;4.474;2023-03-05T13:12:02;7.90;1.00
25933;DHT22;13731;51.166;4.474;2023-03-05T13:14:44;7.90;1.00
25933;DHT22;13731;51.166;4.474;2023-03-05T13:17:30;7.80;1.00
25933;DHT22;13731;51.166;4.474;2023-03-05T13:19:58;7.70;99.90
25933;DHT22;13731;51.166;4.474;2023-03-05T13:22:25;7.80;99.90
25933;DHT22;13731;51.166;4.474;2023-03-05T13:27:35;8.00;99.90
25933;DHT22;13731;51.166;4.474;2023-03-05T13:30:01;7.90;99.90
25933;DHT22;13731;51.166;4.474;2023-03-05T13:32:30;8.10;1.00
25933;DHT22;13731;51.166;4.474;2023-03-05T13:34:58;8.00;14.20
25933;DHT22;13731;51.166;4.474;2023-03-05T13:37:26;8.00;40.10
25933;DHT22;13731;51.166;4.474;2023-03-05T13:39:57;7.80;71.10
25933;DHT22;13731;51.166;4.474;2023-03-05T13:42:26;7.60;1.00
25933;DHT22;13731;51.166;4.474;2023-03-05T13:45:02;7.60;1.00
25933;DHT22;13731;51.166;4.474;2023-03-05T13:47:31;7.40;18.40
25933;DHT22;13731;51.166;4.474;2023-03-05T13:49:59;7.20;99.90
25933;DHT22;13731;51.166;4.474;2023-03-05T13:52:31;7.20;99.90
25933;DHT22;13731;51.166;4.474;2023-03-05T13:55:02;7.30;99.90
25933;DHT22;13731;51.166;4.474;2023-03-05T13:59:59;6.90;99.90
25933;DHT22;13731;51.166;4.474;2023-03-05T14:02:26;7.10;99.90
25933;DHT22;13731;51.166;4.474;2023-03-05T14:04:54;7.20;99.90
25933;DHT22;13731;51.166;4.474;2023-03-05T14:07:35;7.50;56.30
25933;DHT22;13731;51.166;4.474;2023-03-05T14:10:02;7.70;1.00
25933;DHT22;13731;51.166;4.474;2023-03-05T14:15:04;8.20;1.00
25933;DHT22;13731;51.166;4.474;2023-03-05T14:17:44;8.20;1.00
25933;DHT22;13731;51.166;4.474;2023-03-05T14:22:42;8.10;1.00
25933;DHT22;13731;51.166;4.474;2023-03-05T14:27:53;8.10;99.90
25933;DHT22;13731;51.166;4.474;2023-03-05T14:30:21;8.20;99.90
25933;DHT22;13731;51.166;4.474;2023-03-05T14:32:48;8.30;1.00
25933;DHT22;13731;51.166;4.474;2023-03-05T14:35:18;8.40;99.90
25933;DHT22;13731;51.166;4.474;2023-03-05T14:37:46;8.40;99.90
25933;DHT22;13731;51.166;4.474;2023-03-05T14:42:49;8.10;99.90
25933;DHT22;13731;51.166;4.474;2023-03-05T14:45:19;7.70;1.00
25933;DHT22;13731;51.166;4.474;2023-03-05T14:47:45;7.90;1.00
25933;DHT22;13731;51.166;4.474;2023-03-05T14:50:33;7.80;1.00
25933;DHT22;13731;51.166;4.474;2023-03-05T14:53:08;7.60;1.00
25933;DHT22;13731;51.166;4.474;2023-03-05T14:55:35;7.50;1.00
25933;DHT22;13731;51.166;4.474;2023-03-05T14:58:14;7.50;99.90
25933;DHT22;13731;51.166;4.474;2023-03-05T15:00:41;7.70;1.00
25933;DHT22;13731;51.166;4.474;2023-03-05T15:03:12;7.80;99.90
25933;DHT22;13731;51.166;4.474;2023-03-05T15:05:39;7.50;99.90
25933;DHT22;13731;51.166;4.474;2023-03-05T15:08:05;7.30;1.00
25933;DHT22;13731;51.166;4.474;2023-03-05T15:10:32;7.20;1.00
25933;DHT22;13731;51.166;4.474;2023-03-05T15:12:58;7.20;1.00
25933;DHT22;13731;51.166;4.474;2023-03-05T15:15:24;7.30;1.00
25933;DHT22;13731;51.166;4.474;2023-03-05T15:17:50;7.20;1.00
25933;DHT22;13731;51.166;4.474;2023-03-05T15:20:29;7.20;1.00
25933;DHT22;13731;51.166;4.474;2023-03-05T15:22:55;7.10;99.90
25933;DHT22;13731;51.166;4.474;2023-03-05T15:25:23;7.10;99.90
25933;DHT22;13731;51.166;4.474;2023-03-05T15:27:51;7.30;99.90
25933;DHT22;13731;51.166;4.474;2023-03-05T15:30:33;7.20;99.90
25933;DHT22;13731;51.166;4.474;2023-03-05T15:33:02;7.30;1.00
25933;DHT22;13731;51.166;4.474;2023-03-05T15:35:28;7.10;1.00
25933;DHT22;13731;51.166;4.474;2023-03-05T15:37:54;6.90;1.00
25933;DHT22;13731;51.166;4.474;2023-03-05T15:40:20;6.70;1.00
25933;DHT22;13731;51.166;4.474;2023-03-05T15:42:47;6.70;1.00
25933;DHT22;13731;51.166;4.474;2023-03-05T15:45:13;6.50;1.00
25933;DHT22;13731;51.166;4.474;2023-03-05T15:47:39;6.40;13.30
25933;DHT22;13731;51.166;4.474;2023-03-05T15:50:06;6.20;99.90
25933;DHT22;13731;51.166;4.474;2023-03-05T15:52:32;6.20;99.90
25933;DHT22;13731;51.166;4.474;2023-03-05T15:55:01;6.50;90.90
25933;DHT22;13731;51.166;4.474;2023-03-05T15:57:27;6.60;1.00
25933;DHT22;13731;51.166;4.474;2023-03-05T15:59:53;6.90;99.90
25933;DHT22;13731;51.166;4.474;2023-03-05T16:02:20;6.70;99.90
25933;DHT22;13731;51.166;4.474;2023-03-05T16:04:46;6.60;99.90
25933;DHT22;13731;51.166;4.474;2023-03-05T16:07:13;6.60;99.90
25933;DHT22;13731;51.166;4.474;2023-03-05T16:09:43;6.60;99.90
25933;DHT22;13731;51.166;4.474;2023-03-05T16:12:14;6.50;99.90
25933;DHT22;13731;51.166;4.474;2023-03-05T16:14:41;6.50;99.90
25933;DHT22;13731;51.166;4.474;2023-03-05T16:17:07;6.70;99.90
25933;DHT22;13731;51.166;4.474;2023-03-05T16:19:36;6.80;18.60
25933;DHT22;13731;51.166;4.474;2023-03-05T16:22:05;6.70;99.90
25933;DHT22;13731;51.166;4.474;2023-03-05T16:24:31;6.50;99.90
25933;DHT22;13731;51.166;4.474;2023-03-05T16:26:57;6.50;1.00
25933;DHT22;13731;51.166;4.474;2023-03-05T16:29:24;6.40;1.00
25933;DHT22;13731;51.166;4.474;2023-03-05T16:31:50;6.40;1.00
25933;DHT22;13731;51.166;4.474;2023-03-05T16:34:16;6.40;8.30
25933;DHT22;13731;51.166;4.474;2023-03-05T16:36:50;6.50;1.00
25933;DHT22;13731;51.166;4.474;2023-03-05T16:39:18;6.40;99.90
25933;DHT22;13731;51.166;4.474;2023-03-05T16:41:44;6.40;99.90
25933;DHT22;13731;51.166;4.474;2023-03-05T16:44:13;6.50;99.90
25933;DHT22;13731;51.166;4.474;2023-03-05T16:46:39;6.40;1.00
25933;DHT22;13731;51.166;4.474;2023-03-05T16:49:06;6.40;1.00
25933;DHT22;13731;51.166;4.474;2023-03-05T16:51:33;6.40;1.00
25933;DHT22;13731;51.166;4.474;2023-03-05T16:53:59;6.30;99.90
25933;DHT22;13731;51.166;4.474;2023-03-05T16:56:25;6.40;99.90
25933;DHT22;13731;51.166;4.474;2023-03-05T16:58:54;6.40;1.00
25933;DHT22;13731;51.166;4.474;2023-03-05T17:01:21;6.30;99.90
25933;DHT22;13731;51.166;4.474;2023-03-05T17:03:48;6.10;1.00
25933;DHT22;13731;51.166;4.474;2023-03-05T17:06:23;6.10;1.00
25933;DHT22;13731;51.166;4.474;2023-03-05T17:08:50;5.80;99.90
25933;DHT22;13731;51.166;4.474;2023-03-05T17:11:16;5.70;1.00
25933;DHT22;13731;51.166;4.474;2023-03-05T17:13:43;5.70;1.00
25933;DHT22;13731;51.166;4.474;2023-03-05T17:16:11;5.90;99.90
25933;DHT22;13731;51.166;4.474;2023-03-05T17:18:37;5.70;1.00
25933;DHT22;13731;51.166;4.474;2023-03-05T17:21:04;5.70;1.00
25933;DHT22;13731;51.166;4.474;2023-03-05T17:23:33;5.80;1.00
25933;DHT22;13731;51.166;4.474;2023-03-05T17:26:03;5.60;28.40
25933;DHT22;13731;51.166;4.474;2023-03-05T17:28:29;5.70;1.00
25933;DHT22;13731;51.166;4.474;2023-03-05T17:30:55;5.80;1.00
25933;DHT22;13731;51.166;4.474;2023-03-05T17:33:24;5.80;1.00
25933;DHT22;13731;51.166;4.474;2023-03-05T17:35:51;6.00;99.90
25933;DHT22;13731;51.166;4.474;2023-03-05T17:38:17;6.20;99.90
25933;DHT22;13731;51.166;4.474;2023-03-05T17:40:43;6.10;99.90
25933;DHT22;13731;51.166;4.474;2023-03-05T17:43:09;6.00;99.90